Terminal Aerodrome Forecast
Issued by NWS

Home | Current Version | Previous Version | Text Only | Print | Product List | Glossary On
Versions: 1 2 3 4 5 6 7 8 9 10 11 12 13 14 15 16
612
FTPA31 PHFO 300238 AAA
TAFHJR
TAF AMD
PHJR 300238Z 3003/3024 02009G19KT P6SM VCSH FEW025 BKN045
     FM300400 35009KT P6SM VCSH FEW045 BKN070
     FM300800 VRB03KT P6SM FEW045 BKN070
     FM302000 10012KT P6SM FEW045 BKN070=

USA.gov is the U.S. government's official web portal to all federal, state and local government web resources and services.